Xunlong5 — BYGW — position and weather

sailwx.info

Track history (hours):
 
Tides and Currents Weather Stations Pressure Air Temp Water Temp Dewpoint Dewpoint Depression Visibility Wind Speed Wind Dir Waves Ship Positions

Xunlong5

Last reported at 2014-Jul-24 15:09 UTC. Time now 2014-Jul-24 17:01 UTC.
Position N 22°36' E 113°49'.

Length 34 m; draft 1.4 m.

Type: High speed craft. MMSI: 413471870.

Date/timePositionNaut miles runAvg speedWind from/ knotsBaromVisibWave heightAir tempDewpointWater temp
2014-Jul-24 15:09N 22°36' E 113°49'2 0.7
2014-Jul-24 12:04N 22°34' E 113°48'1527.7
2014-Jul-24 11:32N 22°20' E 113°43'1312.9
2014-Jul-24 10:33N 22°10' E 113°35'2423.7
2014-Jul-24 09:33N 22°31' E 113°47'4 4.0
2014-Jul-24 08:33N 22°27' E 113°46'1919.0
2014-Jul-24 07:33N 22°12' E 113°34'2120.6
2014-Jul-24 06:33N 22°29' E 113°47'5 4.8
2014-Jul-24 05:33N 22°24' E 113°44'1615.8
2014-Jul-24 04:33N 22°12' E 113°34'2019.6
2014-Jul-24 03:33N 22°28' E 113°46'3 2.7
2014-Jul-24 02:33N 22°25' E 113°45'1717.1
2014-Jul-24 01:33N 22°12' E 113°34'1919.4
2014-Jul-24 00:33N 22°27' E 113°46'7 0.6
2014-Jul-23 12:08N 22°34' E 113°48'1628.9
2014-Jul-23 11:34N 22°19' E 113°42'1111.2
2014-Jul-23 10:33N 22°10' E 113°35'2222.0
2014-Jul-23 09:33N 22°29' E 113°47'3 2.7
2014-Jul-23 08:34N 22°26' E 113°46'1817.9
2014-Jul-23 07:33N 22°12' E 113°34'1919.4
2014-Jul-23 06:34N 22°27' E 113°46'2 2.1
2014-Jul-23 05:33N 22°25' E 113°45'1717.2
2014-Jul-23 04:33N 22°12' E 113°34'2120.8
2014-Jul-23 03:33N 22°29' E 113°47'4 4.3
2014-Jul-23 02:33N 22°25' E 113°45'1716.6
2014-Jul-23 01:33N 22°12' E 113°34'1919.5
2014-Jul-23 00:33N 22°28' E 113°46'6 0.5
2014-Jul-22 11:33N 22°22' E 113°44'1514.6
2014-Jul-22 10:33N 22°10' E 113°35'2322.6
2014-Jul-22 09:33N 22°29' E 113°47'2 1.8
2014-Jul-22 08:33N 22°28' E 113°46'2020.0
2014-Jul-22 07:33N 22°12' E 113°34'1918.8
2014-Jul-22 06:33N 22°27' E 113°46'1 0.9
2014-Jul-22 05:33N 22°26' E 113°45'1817.9
2014-Jul-22 04:33N 22°12' E 113°34'1716.7
2014-Jul-22 03:33N 22°25' E 113°45'2 1.8
2014-Jul-22 02:33N 22°26' E 113°46'1818.5
2014-Jul-22 01:33N 22°12' E 113°34'2120.7
2014-Jul-22 00:33N 22°29' E 113°47'5 0.4
2014-Jul-21 12:04N 22°33' E 113°48'1527.7
2014-Jul-21 11:32N 22°19' E 113°43'1212.0
2014-Jul-21 10:33N 22°10' E 113°35'2524.6
2014-Jul-21 09:33N 22°32' E 113°48'5 4.7
2014-Jul-21 08:33N 22°27' E 113°46'1919.0
2014-Jul-21 07:33N 22°12' E 113°34'2020.0
2014-Jul-21 06:33N 22°28' E 113°46'3 2.8
2014-Jul-21 05:33N 22°26' E 113°45'1717.3
2014-Jul-21 04:33N 22°12' E 113°34'2323.3
2014-Jul-21 03:34N 22°31' E 113°48'7 7.5
2014-Jul-21 02:33N 22°24' E 113°45'1616.2
2014-Jul-21 01:33N 22°12' E 113°34'2221.6
2014-Jul-21 00:33N 22°30' E 113°47'5 0.4
2014-Jul-20 12:06N 22°34' E 113°48'1628.7
2014-Jul-20 11:33N 22°19' E 113°43'1111.6
2014-Jul-20 10:33N 22°10' E 113°35'2322.7
2014-Jul-20 09:33N 22°30' E 113°47'5 5.2
2014-Jul-20 08:33N 22°25' E 113°45'1717.1
2014-Jul-20 07:33N 22°12' E 113°34'2120.7
2014-Jul-20 06:33N 22°29' E 113°47'5 5.2
2014-Jul-20 05:33N 22°24' E 113°44'1615.6
2014-Jul-20 04:33N 22°12' E 113°34'2221.7
2014-Jul-20 03:33N 22°30' E 113°47'7 6.8
2014-Jul-20 02:33N 22°24' E 113°44'1515.0
2014-Jul-20 01:33N 22°12' E 113°34'2121.2
2014-Jul-20 00:33N 22°29' E 113°47'5 0.4
2014-Jul-19 12:14N 22°34' E 113°48'1827.1
2014-Jul-19 11:33N 22°17' E 113°42'9 9.0
2014-Jul-19 10:33N 22°10' E 113°35'2525.3
2014-Jul-19 09:33N 22°33' E 113°47'1414.3
2014-Jul-19 08:33N 22°19' E 113°42'1111.2
2014-Jul-19 07:34N 22°11' E 113°35'2424.0
2014-Jul-19 06:34N 22°32' E 113°47'1211.6
2014-Jul-19 05:32N 22°21' E 113°43'1212.6
2014-Jul-19 04:34N 22°12' E 113°34'2222.1
2014-Jul-19 03:33N 22°31' E 113°46'7 7.3
2014-Jul-19 02:33N 22°24' E 113°44'1515.1
2014-Jul-19 01:33N 22°12' E 113°34'2222.5
2014-Jul-19 00:33N 22°30' E 113°47'3 0.1
2014-Jul-17 12:25N 22°33' E 113°48'2023.2
2014-Jul-17 11:33N 22°14' E 113°41'1 0.9
2014-Jul-17 10:34N 22°15' E 113°41'2116.1
2014-Jul-17 09:15N 22°35' E 113°48'1622.8
2014-Jul-17 08:32N 22°19' E 113°43'1111.3
2014-Jul-17 07:34N 22°11' E 113°35'2424.1
2014-Jul-17 06:33N 22°32' E 113°47'1312.6
2014-Jul-17 05:31N 22°20' E 113°43'1111.6
2014-Jul-17 04:32N 22°12' E 113°34'2121.0
2014-Jul-17 03:33N 22°29' E 113°46'4 3.9
2014-Jul-17 02:33N 22°25' E 113°45'1716.7
2014-Jul-17 01:33N 22°12' E 113°34'2322.8
2014-Jul-17 00:34N 22°31' E 113°47'3 0.3
2014-Jul-16 12:14N 22°34' E 113°48'1827.1
2014-Jul-16 11:34N 22°17' E 113°42'9 9.4
2014-Jul-16 10:33N 22°10' E 113°35'2222.6
2014-Jul-16 09:34N 22°29' E 113°47'5 5.1
2014-Jul-16 08:34N 22°25' E 113°45'1616.3
2014-Jul-16 07:33N 22°12' E 113°34'1515.3
2014-Jul-16 06:33N 22°24' E 113°44'6 5.8
2014-Jul-16 05:33N 22°29' E 113°46'2120.4
2014-Jul-16 04:32N 22°12' E 113°34'1818.7
2014-Jul-16 03:34N 22°27' E 113°45'1 0.8
2014-Jul-16 02:31N 22°26' E 113°45'1818.2
2014-Jul-16 01:33N 22°12' E 113°34'1919.6
2014-Jul-16 00:34N 22°28' E 113°46'7 0.6
2014-Jul-15 12:16N 22°35' E 113°48'1927.8
2014-Jul-15 11:34N 22°16' E 113°42'9 8.9
2014-Jul-15 10:34N 22°10' E 113°35'2525.1
2014-Jul-15 09:34N 22°32' E 113°47'6 5.9
2014-Jul-15 08:33N 22°27' E 113°45'1818.2
2014-Jul-15 07:33N 22°12' E 113°34'1818.2
2014-Jul-15 06:33N 22°26' E 113°45'0 0.4
2014-Jul-15 05:33N 22°27' E 113°45'1818.4
2014-Jul-15 04:33N 22°12' E 113°34'2020.2
2014-Jul-15 03:33N 22°28' E 113°46'6 5.9
2014-Jul-15 02:33N 22°23' E 113°44'1414.6
2014-Jul-15 01:33N 22°12' E 113°34'2121.2
2014-Jul-15 00:33N 22°30' E 113°46'  
Track history (hours):
 
Tides and Currents Weather Stations Pressure Air Temp Water Temp Dewpoint Dewpoint Depression Visibility Wind Speed Wind Dir Waves Ship Positions

Xunlong5

Last reported at 2014-Jul-24 15:09 UTC. Time now 2014-Jul-24 17:01 UTC.
Position N 22°36' E 113°49'.

Length 34 m; draft 1.4 m.

Type: High speed craft. MMSI: 413471870.

Date/timePositionNaut miles runAvg speedWind from/ knotsBaromVisibWave heightAir tempDewpointWater temp
2014-Jul-24 15:09N 22°36' E 113°49'2 0.7
2014-Jul-24 12:04N 22°34' E 113°48'1527.7
2014-Jul-24 11:32N 22°20' E 113°43'1312.9
2014-Jul-24 10:33N 22°10' E 113°35'2423.7
2014-Jul-24 09:33N 22°31' E 113°47'4 4.0
2014-Jul-24 08:33N 22°27' E 113°46'1919.0
2014-Jul-24 07:33N 22°12' E 113°34'2120.6
2014-Jul-24 06:33N 22°29' E 113°47'5 4.8
2014-Jul-24 05:33N 22°24' E 113°44'1615.8
2014-Jul-24 04:33N 22°12' E 113°34'2019.6
2014-Jul-24 03:33N 22°28' E 113°46'3 2.7
2014-Jul-24 02:33N 22°25' E 113°45'1717.1
2014-Jul-24 01:33N 22°12' E 113°34'1919.4
2014-Jul-24 00:33N 22°27' E 113°46'7 0.6
2014-Jul-23 12:08N 22°34' E 113°48'1628.9
2014-Jul-23 11:34N 22°19' E 113°42'1111.2
2014-Jul-23 10:33N 22°10' E 113°35'2222.0
2014-Jul-23 09:33N 22°29' E 113°47'3 2.7
2014-Jul-23 08:34N 22°26' E 113°46'1817.9
2014-Jul-23 07:33N 22°12' E 113°34'1919.4
2014-Jul-23 06:34N 22°27' E 113°46'2 2.1
2014-Jul-23 05:33N 22°25' E 113°45'1717.2
2014-Jul-23 04:33N 22°12' E 113°34'2120.8
2014-Jul-23 03:33N 22°29' E 113°47'4 4.3
2014-Jul-23 02:33N 22°25' E 113°45'1716.6
2014-Jul-23 01:33N 22°12' E 113°34'1919.5
2014-Jul-23 00:33N 22°28' E 113°46'6 0.5
2014-Jul-22 11:33N 22°22' E 113°44'1514.6
2014-Jul-22 10:33N 22°10' E 113°35'2322.6
2014-Jul-22 09:33N 22°29' E 113°47'2 1.8
2014-Jul-22 08:33N 22°28' E 113°46'2020.0
2014-Jul-22 07:33N 22°12' E 113°34'1918.8
2014-Jul-22 06:33N 22°27' E 113°46'1 0.9
2014-Jul-22 05:33N 22°26' E 113°45'1817.9
2014-Jul-22 04:33N 22°12' E 113°34'1716.7
2014-Jul-22 03:33N 22°25' E 113°45'2 1.8
2014-Jul-22 02:33N 22°26' E 113°46'1818.5
2014-Jul-22 01:33N 22°12' E 113°34'2120.7
2014-Jul-22 00:33N 22°29' E 113°47'5 0.4
2014-Jul-21 12:04N 22°33' E 113°48'1527.7
2014-Jul-21 11:32N 22°19' E 113°43'1212.0
2014-Jul-21 10:33N 22°10' E 113°35'2524.6
2014-Jul-21 09:33N 22°32' E 113°48'5 4.7
2014-Jul-21 08:33N 22°27' E 113°46'1919.0
2014-Jul-21 07:33N 22°12' E 113°34'2020.0
2014-Jul-21 06:33N 22°28' E 113°46'3 2.8
2014-Jul-21 05:33N 22°26' E 113°45'1717.3
2014-Jul-21 04:33N 22°12' E 113°34'2323.3
2014-Jul-21 03:34N 22°31' E 113°48'7 7.5
2014-Jul-21 02:33N 22°24' E 113°45'1616.2
2014-Jul-21 01:33N 22°12' E 113°34'2221.6
2014-Jul-21 00:33N 22°30' E 113°47'5 0.4
2014-Jul-20 12:06N 22°34' E 113°48'1628.7
2014-Jul-20 11:33N 22°19' E 113°43'1111.6
2014-Jul-20 10:33N 22°10' E 113°35'2322.7
2014-Jul-20 09:33N 22°30' E 113°47'5 5.2
2014-Jul-20 08:33N 22°25' E 113°45'1717.1
2014-Jul-20 07:33N 22°12' E 113°34'2120.7
2014-Jul-20 06:33N 22°29' E 113°47'5 5.2
2014-Jul-20 05:33N 22°24' E 113°44'1615.6
2014-Jul-20 04:33N 22°12' E 113°34'2221.7
2014-Jul-20 03:33N 22°30' E 113°47'7 6.8
2014-Jul-20 02:33N 22°24' E 113°44'1515.0
2014-Jul-20 01:33N 22°12' E 113°34'2121.2
2014-Jul-20 00:33N 22°29' E 113°47'5 0.4
2014-Jul-19 12:14N 22°34' E 113°48'1827.1
2014-Jul-19 11:33N 22°17' E 113°42'9 9.0
2014-Jul-19 10:33N 22°10' E 113°35'2525.3
2014-Jul-19 09:33N 22°33' E 113°47'1414.3
2014-Jul-19 08:33N 22°19' E 113°42'1111.2
2014-Jul-19 07:34N 22°11' E 113°35'2424.0
2014-Jul-19 06:34N 22°32' E 113°47'1211.6
2014-Jul-19 05:32N 22°21' E 113°43'1212.6
2014-Jul-19 04:34N 22°12' E 113°34'2222.1
2014-Jul-19 03:33N 22°31' E 113°46'7 7.3
2014-Jul-19 02:33N 22°24' E 113°44'1515.1
2014-Jul-19 01:33N 22°12' E 113°34'2222.5
2014-Jul-19 00:33N 22°30' E 113°47'3 0.1
2014-Jul-17 12:25N 22°33' E 113°48'2023.2
2014-Jul-17 11:33N 22°14' E 113°41'1 0.9
2014-Jul-17 10:34N 22°15' E 113°41'2116.1
2014-Jul-17 09:15N 22°35' E 113°48'1622.8
2014-Jul-17 08:32N 22°19' E 113°43'1111.3
2014-Jul-17 07:34N 22°11' E 113°35'2424.1
2014-Jul-17 06:33N 22°32' E 113°47'1312.6
2014-Jul-17 05:31N 22°20' E 113°43'1111.6
2014-Jul-17 04:32N 22°12' E 113°34'2121.0
2014-Jul-17 03:33N 22°29' E 113°46'4 3.9
2014-Jul-17 02:33N 22°25' E 113°45'1716.7
2014-Jul-17 01:33N 22°12' E 113°34'2322.8
2014-Jul-17 00:34N 22°31' E 113°47'3 0.3
2014-Jul-16 12:14N 22°34' E 113°48'1827.1
2014-Jul-16 11:34N 22°17' E 113°42'9 9.4
2014-Jul-16 10:33N 22°10' E 113°35'2222.6
2014-Jul-16 09:34N 22°29' E 113°47'5 5.1
2014-Jul-16 08:34N 22°25' E 113°45'1616.3
2014-Jul-16 07:33N 22°12' E 113°34'1515.3
2014-Jul-16 06:33N 22°24' E 113°44'6 5.8
2014-Jul-16 05:33N 22°29' E 113°46'2120.4
2014-Jul-16 04:32N 22°12' E 113°34'1818.7
2014-Jul-16 03:34N 22°27' E 113°45'1 0.8
2014-Jul-16 02:31N 22°26' E 113°45'1818.2
2014-Jul-16 01:33N 22°12' E 113°34'1919.6
2014-Jul-16 00:34N 22°28' E 113°46'7 0.6
2014-Jul-15 12:16N 22°35' E 113°48'1927.8
2014-Jul-15 11:34N 22°16' E 113°42'9 8.9
2014-Jul-15 10:34N 22°10' E 113°35'2525.1
2014-Jul-15 09:34N 22°32' E 113°47'6 5.9
2014-Jul-15 08:33N 22°27' E 113°45'1818.2
2014-Jul-15 07:33N 22°12' E 113°34'1818.2
2014-Jul-15 06:33N 22°26' E 113°45'0 0.4
2014-Jul-15 05:33N 22°27' E 113°45'1818.4
2014-Jul-15 04:33N 22°12' E 113°34'2020.2
2014-Jul-15 03:33N 22°28' E 113°46'6 5.9
2014-Jul-15 02:33N 22°23' E 113°44'1414.6
2014-Jul-15 01:33N 22°12' E 113°34'2121.2
2014-Jul-15 00:33N 22°30' E 113°46'  

Dump ship's entire track history